Time;durP1;ratioP1;P1;durP2;ratioP2;P2;SDS_P1;SDS_P2;PMS_P1;PMS_P2;Temp;Humidity;BMP_temperature;BMP_pressure;BME280_temperature;BME280_humidity;BME280_pressure;Samples;Min_cycle;Max_cycle;Signal;HPM_P1;HPM_P2
2022/05/19 00:01:13;;;;;;;1.42;1.33;;;;;;;;;;4431142;28;20050;-68
2022/05/19 00:03:24;;;;;;;2.20;1.57;;;;;;;;;;4439560;28;20046;-67
2022/05/19 00:05:35;;;;;;;3.17;1.42;;;;;;;;;;4439942;28;20516;-67
2022/05/19 00:07:48;;;;;;;2.45;1.50;;;;;;;;;;4439230;28;21570;-68
2022/05/19 00:09:58;;;;;;;2.23;1.60;;;;;;;;;;4439207;28;20044;-67
2022/05/19 00:12:11;;;;;;;2.43;1.57;;;;;;;;;;4439677;28;20501;-67
2022/05/19 00:14:22;;;;;;;3.15;1.48;;;;;;;;;;4436553;28;20040;-67
2022/05/19 00:16:33;;;;;;;2.93;1.40;;;;;;;;;;4438706;28;20487;-67
2022/05/19 00:18:43;;;;;;;2.13;1.40;;;;;;;;;;4442126;28;20404;-67
2022/05/19 00:20:53;;;;;;;2.47;1.43;;;;;;;;;;4423628;28;33250;-68
2022/05/19 00:23:04;;;;;;;3.37;1.80;;;;;;;;;;4423689;28;20947;-67
2022/05/19 00:25:14;;;;;;;2.47;1.77;;;;;;;;;;4441087;28;20571;-67
2022/05/19 00:27:25;;;;;;;2.17;1.33;;;;;;;;;;4440047;28;41456;-67
2022/05/19 00:29:36;;;;;;;3.03;1.57;;;;;;;;;;4425599;28;20481;-67
2022/05/19 00:31:46;;;;;;;2.78;1.70;;;;;;;;;;4441245;28;20040;-68
2022/05/19 00:33:57;;;;;;;1.50;1.20;;;;;;;;;;4440889;28;20081;-68
2022/05/19 00:36:11;;;;;;;2.15;1.60;;;;;;;;;;4440345;28;20036;-67
2022/05/19 00:38:21;;;;;;;2.25;1.70;;;;;;;;;;4432946;28;20134;-67
2022/05/19 00:40:32;;;;;;;2.07;1.30;;;;;;;;;;4441560;28;24980;-67
2022/05/19 00:42:45;;;;;;;1.92;1.70;;;;;;;;;;4441197;28;20038;-67
2022/05/19 00:44:56;;;;;;;2.67;1.75;;;;;;;;;;4441072;28;20051;-67
2022/05/19 00:47:12;;;;;;;2.58;1.65;;;;;;;;;;4441768;28;20098;-67
2022/05/19 00:49:27;;;;;;;2.10;1.70;;;;;;;;;;4416321;28;20044;-67
2022/05/19 00:51:44;;;;;;;3.08;1.73;;;;;;;;;;4423527;28;20549;-67
2022/05/19 00:53:57;;;;;;;2.80;1.70;;;;;;;;;;4422601;28;20036;-67
2022/05/19 00:56:12;;;;;;;2.53;1.90;;;;;;;;;;4439411;28;20617;-67
2022/05/19 00:58:31;;;;;;;2.47;1.75;;;;;;;;;;4424190;28;20103;-67
2022/05/19 01:00:41;;;;;;;2.28;1.50;;;;;;;;;;4440823;28;20027;-67
2022/05/19 01:02:54;;;;;;;2.70;1.77;;;;;;;;;;4440603;28;20957;-67
2022/05/19 01:05:09;;;;;;;2.45;1.52;;;;;;;;;;4412887;28;20746;-68
2022/05/19 01:07:24;;;;;;;2.80;1.98;;;;;;;;;;4438056;28;20039;-67
2022/05/19 01:09:35;;;;;;;2.65;1.60;;;;;;;;;;4439091;28;20071;-67
2022/05/19 01:11:51;;;;;;;2.08;1.60;;;;;;;;;;4441071;28;20078;-67
2022/05/19 01:14:03;;;;;;;2.40;1.70;;;;;;;;;;4440017;28;20036;-67
2022/05/19 01:16:15;;;;;;;3.20;1.80;;;;;;;;;;4441031;28;20595;-68
2022/05/19 01:18:26;;;;;;;;;;;;;;;;;;4433224;28;20046;-67
2022/05/19 01:20:38;;;;;;;2.45;1.60;;;;;;;;;;4423736;28;19970;-67
2022/05/19 01:22:51;;;;;;;;;;;;;;;;;;4440808;28;20046;-67
2022/05/19 01:25:33;;;;;;;2.15;1.75;;;;;;;;;;4439684;28;19922;-67
2022/05/19 01:27:44;;;;;;;1.95;1.77;;;;;;;;;;4422961;28;20583;-67
2022/05/19 01:29:54;;;;;;;2.20;1.80;;;;;;;;;;4439440;28;40199;-67
2022/05/19 01:32:05;;;;;;;2.00;1.65;;;;;;;;;;4440211;28;20134;-68
2022/05/19 01:34:18;;;;;;;3.27;1.60;;;;;;;;;;4441589;28;20393;-67
2022/05/19 01:36:29;;;;;;;3.33;1.85;;;;;;;;;;4440745;28;20171;-67
2022/05/19 01:38:39;;;;;;;2.28;1.83;;;;;;;;;;4424322;28;20055;-67
2022/05/19 01:41:21;;;;;;;2.03;1.60;;;;;;;;;;4440424;28;20211;-67
2022/05/19 01:44:01;;;;;;;2.20;1.67;;;;;;;;;;4424097;28;20035;-68
2022/05/19 01:46:38;;;;;;;2.30;1.70;;;;;;;;;;4423327;28;20047;-67
2022/05/19 01:48:54;;;;;;;2.67;1.80;;;;;;;;;;4423444;28;20044;-67
2022/05/19 01:51:21;;;;;;;3.13;1.90;;;;;;;;;;4432019;28;20591;-67
2022/05/19 01:53:39;;;;;;;2.72;1.70;;;;;;;;;;4440421;28;20574;-67
2022/05/19 01:56:08;;;;;;;2.00;1.70;;;;;;;;;;4439881;28;20615;-67
2022/05/19 01:58:34;;;;;;;1.63;1.52;;;;;;;;;;4442500;28;20046;-67
2022/05/19 02:00:46;;;;;;;2.80;1.63;;;;;;;;;;4438831;28;20047;-67
2022/05/19 02:03:03;;;;;;;2.28;1.60;;;;;;;;;;4432426;28;20058;-67
2022/05/19 02:05:13;;;;;;;2.25;1.65;;;;;;;;;;4439550;28;20536;-67
2022/05/19 02:07:24;;;;;;;3.03;1.63;;;;;;;;;;4441154;28;20091;-67
2022/05/19 02:09:39;;;;;;;2.92;1.80;;;;;;;;;;4425676;28;20047;-67
2022/05/19 02:11:54;;;;;;;1.98;1.50;;;;;;;;;;4439791;28;21061;-67
2022/05/19 02:14:12;;;;;;;1.90;1.45;;;;;;;;;;4439518;28;20035;-67
2022/05/19 02:16:23;;;;;;;2.63;1.70;;;;;;;;;;4432183;28;20754;-67
2022/05/19 02:18:34;;;;;;;2.47;1.77;;;;;;;;;;4407408;28;20048;-67
2022/05/19 02:20:45;;;;;;;2.63;1.80;;;;;;;;;;4440196;28;20423;-67
2022/05/19 02:22:55;;;;;;;2.42;1.60;;;;;;;;;;4440101;28;31949;-67
2022/05/19 02:25:23;;;;;;;2.58;1.83;;;;;;;;;;4425388;28;20043;-68
2022/05/19 02:27:39;;;;;;;1.90;1.63;;;;;;;;;;4422249;28;20631;-67
2022/05/19 02:29:49;;;;;;;2.92;1.70;;;;;;;;;;4438923;28;20039;-67
2022/05/19 02:31:59;;;;;;;2.90;1.70;;;;;;;;;;4439960;28;23209;-67
2022/05/19 02:34:10;;;;;;;3.20;1.73;;;;;;;;;;4440345;28;20123;-67
2022/05/19 02:36:20;;;;;;;2.73;1.97;;;;;;;;;;4438794;28;23151;-67
2022/05/19 02:38:31;;;;;;;2.23;1.50;;;;;;;;;;4440822;28;39387;-67
2022/05/19 02:40:42;;;;;;;2.30;1.80;;;;;;;;;;4438935;28;20196;-67
2022/05/19 02:42:52;;;;;;;2.10;1.40;;;;;;;;;;4440229;28;21021;-67
2022/05/19 02:45:03;;;;;;;2.10;1.80;;;;;;;;;;4437430;28;20534;-67
2022/05/19 02:47:14;;;;;;;2.22;1.60;;;;;;;;;;4440662;28;20071;-67
2022/05/19 02:49:24;;;;;;;3.03;1.90;;;;;;;;;;4440670;28;20040;-67
2022/05/19 02:51:34;;;;;;;2.17;1.63;;;;;;;;;;4440395;28;20470;-67
2022/05/19 02:53:45;;;;;;;3.07;1.80;;;;;;;;;;4439155;28;20066;-67
2022/05/19 02:55:55;;;;;;;3.93;1.80;;;;;;;;;;4438816;28;30185;-67
2022/05/19 02:58:06;;;;;;;2.20;1.50;;;;;;;;;;4440493;28;20039;-67
2022/05/19 03:00:20;;;;;;;1.63;1.45;;;;;;;;;;4441563;28;20595;-67
2022/05/19 03:02:30;;;;;;;2.33;1.70;;;;;;;;;;4440762;28;20091;-67
2022/05/19 03:04:41;;;;;;;2.70;1.80;;;;;;;;;;4422111;28;43733;-67
2022/05/19 03:06:52;;;;;;;2.37;1.70;;;;;;;;;;4438558;28;41354;-67
2022/05/19 03:09:04;;;;;;;2.50;1.70;;;;;;;;;;4439532;28;20042;-69
2022/05/19 03:11:14;;;;;;;1.98;1.60;;;;;;;;;;4440298;28;20602;-67
2022/05/19 03:13:25;;;;;;;3.77;1.80;;;;;;;;;;4439256;28;20039;-67
2022/05/19 03:15:35;;;;;;;2.20;1.80;;;;;;;;;;4438100;28;20090;-67
2022/05/19 03:17:46;;;;;;;2.60;1.70;;;;;;;;;;4437712;28;20031;-67
2022/05/19 03:19:57;;;;;;;1.90;1.57;;;;;;;;;;4439649;28;20036;-67
2022/05/19 03:22:07;;;;;;;2.47;1.53;;;;;;;;;;4431288;28;20038;-66
2022/05/19 03:24:18;;;;;;;2.20;1.80;;;;;;;;;;4438301;28;30909;-67
2022/05/19 03:26:28;;;;;;;3.53;1.80;;;;;;;;;;4438896;28;20562;-67
2022/05/19 03:28:41;;;;;;;1.95;1.48;;;;;;;;;;4439953;28;20047;-67
2022/05/19 03:30:52;;;;;;;1.93;1.53;;;;;;;;;;4439907;28;20455;-67
2022/05/19 03:33:02;;;;;;;3.40;1.70;;;;;;;;;;4438861;28;20067;-67
2022/05/19 03:35:14;;;;;;;1.95;1.67;;;;;;;;;;4439640;28;20412;-67
2022/05/19 03:37:24;;;;;;;;;;;;;;;;;;4421916;28;20076;-67
2022/05/19 03:39:36;;;;;;;2.65;1.85;;;;;;;;;;4419961;28;20615;-67
2022/05/19 03:41:46;;;;;;;;;;;;;;;;;;4437859;28;20147;-67
2022/05/19 03:43:56;;;;;;;2.40;1.93;;;;;;;;;;4425856;28;20040;-68
2022/05/19 03:46:07;;;;;;;2.67;1.80;;;;;;;;;;4438686;28;20031;-67
2022/05/19 03:48:17;;;;;;;3.83;2.00;;;;;;;;;;4437043;28;20047;-67
2022/05/19 03:50:28;;;;;;;2.73;1.90;;;;;;;;;;4420852;28;20040;-67
2022/05/19 03:52:40;;;;;;;2.57;1.57;;;;;;;;;;4440160;28;20535;-67
2022/05/19 03:54:50;;;;;;;2.20;1.80;;;;;;;;;;4439897;28;20035;-66
2022/05/19 03:57:00;;;;;;;1.70;1.50;;;;;;;;;;4441235;28;20027;-66
2022/05/19 03:59:11;;;;;;;1.97;1.60;;;;;;;;;;4441941;28;20559;-66
2022/05/19 04:01:22;;;;;;;2.47;1.70;;;;;;;;;;4423227;28;20059;-66
2022/05/19 04:03:32;;;;;;;2.50;1.70;;;;;;;;;;4440181;28;20060;-66
2022/05/19 04:05:43;;;;;;;2.67;1.77;;;;;;;;;;4439404;28;20078;-66
2022/05/19 04:07:53;;;;;;;2.87;1.63;;;;;;;;;;4434294;28;20216;-66
2022/05/19 04:10:06;;;;;;;2.47;1.80;;;;;;;;;;4440592;28;20176;-66
2022/05/19 04:12:20;;;;;;;1.92;1.60;;;;;;;;;;4422823;28;20039;-66
2022/05/19 04:14:30;;;;;;;1.70;1.52;;;;;;;;;;4439826;28;20613;-65
2022/05/19 04:16:41;;;;;;;2.27;1.70;;;;;;;;;;4440766;28;20043;-66
2022/05/19 04:18:51;;;;;;;2.13;1.40;;;;;;;;;;4439847;28;29948;-66
2022/05/19 04:21:02;;;;;;;1.63;1.53;;;;;;;;;;4439845;28;20114;-65
2022/05/19 04:23:13;;;;;;;1.88;1.50;;;;;;;;;;4433141;28;20044;-66
2022/05/19 04:25:24;;;;;;;2.35;1.50;;;;;;;;;;4439174;28;20170;-65
2022/05/19 04:27:34;;;;;;;1.40;1.10;;;;;;;;;;4440379;28;20042;-66
2022/05/19 04:29:47;;;;;;;2.17;1.60;;;;;;;;;;4441084;28;20651;-66
2022/05/19 04:31:58;;;;;;;2.20;1.67;;;;;;;;;;4442183;28;20610;-67
2022/05/19 04:34:08;;;;;;;2.07;1.50;;;;;;;;;;4439708;28;20039;-68
2022/05/19 04:36:19;;;;;;;1.83;1.43;;;;;;;;;;4441329;28;20039;-66
2022/05/19 04:38:29;;;;;;;2.43;1.40;;;;;;;;;;4438795;28;20039;-67
2022/05/19 04:40:41;;;;;;;2.00;1.30;;;;;;;;;;4423280;28;28111;-66
2022/05/19 04:42:53;;;;;;;1.92;1.50;;;;;;;;;;4423300;28;20532;-66
2022/05/19 04:45:05;;;;;;;1.98;1.77;;;;;;;;;;4440432;28;20043;-66
2022/05/19 04:47:16;;;;;;;2.17;1.50;;;;;;;;;;4441157;28;20043;-66
2022/05/19 04:49:27;;;;;;;2.33;1.97;;;;;;;;;;4440491;28;20511;-66
2022/05/19 04:51:38;;;;;;;2.83;1.80;;;;;;;;;;4439714;28;20051;-66
2022/05/19 04:53:48;;;;;;;1.60;1.50;;;;;;;;;;4440744;28;20036;-66
2022/05/19 04:55:58;;;;;;;1.90;1.50;;;;;;;;;;4441955;28;20036;-66
2022/05/19 04:58:09;;;;;;;2.00;1.70;;;;;;;;;;4440294;28;29128;-65
2022/05/19 05:00:22;;;;;;;2.00;1.40;;;;;;;;;;4422630;28;20647;-67
2022/05/19 05:02:32;;;;;;;2.67;1.73;;;;;;;;;;4423620;28;20032;-66
2022/05/19 05:04:44;;;;;;;;;;;;;;;;;;4441331;28;20089;-66
2022/05/19 05:06:54;;;;;;;1.70;1.55;;;;;;;;;;4422955;28;20411;-66
2022/05/19 05:09:05;;;;;;;1.97;1.57;;;;;;;;;;4431041;28;20027;-66
2022/05/19 05:11:15;;;;;;;1.93;1.47;;;;;;;;;;4411706;28;20061;-66
2022/05/19 05:13:25;;;;;;;3.97;2.10;;;;;;;;;;4440104;28;20091;-66
2022/05/19 05:15:38;;;;;;;;;;;;;;;;;;4439488;28;20040;-66
2022/05/19 05:17:48;;;;;;;2.67;1.70;;;;;;;;;;4423542;28;20530;-66
2022/05/19 05:19:59;;;;;;;1.50;1.40;;;;;;;;;;4439130;28;41902;-70
2022/05/19 05:22:09;;;;;;;1.73;1.27;;;;;;;;;;4441409;28;20067;-67
2022/05/19 05:24:20;;;;;;;3.07;1.50;;;;;;;;;;4439213;28;20035;-67
2022/05/19 05:26:30;;;;;;;1.67;1.47;;;;;;;;;;4438731;28;44112;-66
2022/05/19 05:28:40;;;;;;;3.10;1.83;;;;;;;;;;4440742;28;20036;-67
2022/05/19 05:30:51;;;;;;;1.43;1.33;;;;;;;;;;4439952;28;24735;-67
2022/05/19 05:33:06;;;;;;;2.22;1.58;;;;;;;;;;4440495;28;20883;-66
2022/05/19 05:35:17;;;;;;;2.15;1.63;;;;;;;;;;4439387;28;20127;-67
2022/05/19 05:37:28;;;;;;;2.35;1.60;;;;;;;;;;4437919;28;20755;-67
2022/05/19 05:39:39;;;;;;;2.93;1.50;;;;;;;;;;4431765;28;20204;-67
2022/05/19 05:41:49;;;;;;;2.90;1.70;;;;;;;;;;4423482;28;20036;-66
2022/05/19 05:43:59;;;;;;;2.77;1.50;;;;;;;;;;4437758;28;29368;-67
2022/05/19 05:46:14;;;;;;;1.60;1.37;;;;;;;;;;4422766;28;20078;-67
2022/05/19 05:48:25;;;;;;;2.75;1.73;;;;;;;;;;4426623;28;20087;-67
2022/05/19 05:50:36;;;;;;;1.97;1.30;;;;;;;;;;4440237;28;20484;-67
2022/05/19 05:52:46;;;;;;;3.00;1.30;;;;;;;;;;4423048;28;20070;-67
2022/05/19 05:54:59;;;;;;;1.57;1.30;;;;;;;;;;4438465;28;20794;-68
2022/05/19 05:57:10;;;;;;;2.53;1.45;;;;;;;;;;4439828;28;20040;-67
2022/05/19 05:59:20;;;;;;;1.50;1.23;;;;;;;;;;4439735;28;23480;-68
2022/05/19 06:01:30;;;;;;;2.70;1.43;;;;;;;;;;4440333;28;20146;-67
2022/05/19 06:03:41;;;;;;;2.70;1.30;;;;;;;;;;4440022;28;20106;-68
2022/05/19 06:05:52;;;;;;;1.95;1.45;;;;;;;;;;4424915;28;20047;-67
2022/05/19 06:08:03;;;;;;;1.83;1.50;;;;;;;;;;4439458;28;20408;-68
2022/05/19 06:10:14;;;;;;;1.95;1.33;;;;;;;;;;4427513;28;20043;-68
2022/05/19 06:12:39;;;;;;;2.47;1.43;;;;;;;;;;4441381;28;20098;-68
2022/05/19 06:14:50;;;;;;;2.25;1.65;;;;;;;;;;4439078;28;20039;-68
2022/05/19 06:17:00;;;;;;;1.70;1.20;;;;;;;;;;4439034;28;20050;-68
2022/05/19 06:19:11;;;;;;;1.60;1.30;;;;;;;;;;4439250;28;20047;-67
2022/05/19 06:21:21;;;;;;;2.03;1.20;;;;;;;;;;4440526;28;20039;-68
2022/05/19 06:23:32;;;;;;;1.73;1.20;;;;;;;;;;4440427;28;20183;-68
2022/05/19 06:25:43;;;;;;;2.60;1.30;;;;;;;;;;4422610;28;20040;-68
2022/05/19 06:27:54;;;;;;;1.40;1.30;;;;;;;;;;4440368;28;20040;-68
2022/05/19 06:30:09;;;;;;;3.17;1.27;;;;;;;;;;4425918;28;20111;-68
2022/05/19 06:32:20;;;;;;;1.73;1.30;;;;;;;;;;4438022;28;20040;-68
2022/05/19 06:34:31;;;;;;;1.98;1.20;;;;;;;;;;4439386;28;20032;-67
2022/05/19 06:36:42;;;;;;;1.70;1.40;;;;;;;;;;4437893;28;42178;-68
2022/05/19 06:38:52;;;;;;;2.17;1.27;;;;;;;;;;4439519;28;20401;-68
2022/05/19 06:43:32;;;;;;;1.80;1.15;;;;;;;;;;4437945;28;20776;-68
2022/05/19 06:45:43;;;;;;;1.58;1.17;;;;;;;;;;4422494;28;20079;-67
2022/05/19 06:47:54;;;;;;;4.67;1.70;;;;;;;;;;4438464;28;20503;-68
2022/05/19 06:50:06;;;;;;;2.30;1.33;;;;;;;;;;4438568;28;20404;-68
2022/05/19 06:52:25;;;;;;;2.22;1.23;;;;;;;;;;4440779;28;20098;-68
2022/05/19 06:54:35;;;;;;;2.33;1.10;;;;;;;;;;4421806;28;20039;-68
2022/05/19 06:56:46;;;;;;;3.20;1.10;;;;;;;;;;4437030;28;20031;-68
2022/05/19 06:58:56;;;;;;;2.17;1.20;;;;;;;;;;4437966;28;20048;-67
2022/05/19 07:01:07;;;;;;;1.90;1.10;;;;;;;;;;4422191;28;20036;-68
2022/05/19 07:03:17;;;;;;;1.23;1.10;;;;;;;;;;4441171;28;20039;-68
2022/05/19 07:05:31;;;;;;;1.87;1.37;;;;;;;;;;4437668;28;26109;-68
2022/05/19 07:07:41;;;;;;;1.75;1.10;;;;;;;;;;4421086;28;20028;-68
2022/05/19 07:09:52;;;;;;;1.97;1.17;;;;;;;;;;4438115;28;20051;-69
2022/05/19 07:12:04;;;;;;;2.10;1.13;;;;;;;;;;4440082;28;20122;-68
2022/05/19 07:14:14;;;;;;;1.85;1.35;;;;;;;;;;4438830;28;20106;-68
2022/05/19 07:16:25;;;;;;;2.30;1.23;;;;;;;;;;4419649;28;20129;-68
2022/05/19 07:18:36;;;;;;;1.75;1.10;;;;;;;;;;4422857;28;20083;-67
2022/05/19 07:20:50;;;;;;;4.83;1.57;;;;;;;;;;4423897;28;20758;-69
2022/05/19 07:23:01;;;;;;;1.33;1.10;;;;;;;;;;4440116;28;20684;-68
2022/05/19 07:25:13;;;;;;;2.70;1.30;;;;;;;;;;4438640;28;20035;-68
2022/05/19 07:27:23;;;;;;;3.00;1.37;;;;;;;;;;4421069;28;20043;-68
2022/05/19 07:29:33;;;;;;;2.47;1.10;;;;;;;;;;4438863;28;21636;-68
2022/05/19 07:31:46;;;;;;;1.27;1.07;;;;;;;;;;4421734;28;20119;-68
2022/05/19 07:33:56;;;;;;;1.75;1.05;;;;;;;;;;4438281;28;20035;-68
2022/05/19 07:36:08;;;;;;;1.50;1.10;;;;;;;;;;4436812;28;20380;-68
2022/05/19 07:38:19;;;;;;;2.30;1.23;;;;;;;;;;4437551;28;20027;-68
2022/05/19 07:40:29;;;;;;;2.73;1.30;;;;;;;;;;4437723;28;20066;-68
2022/05/19 07:42:40;;;;;;;2.50;1.30;;;;;;;;;;4420944;28;20060;-68
2022/05/19 07:44:51;;;;;;;2.03;1.20;;;;;;;;;;4421624;28;20028;-69
2022/05/19 07:47:01;;;;;;;1.92;1.20;;;;;;;;;;4438204;28;20569;-68
2022/05/19 07:49:12;;;;;;;1.40;1.20;;;;;;;;;;4421498;28;20040;-69
2022/05/19 07:51:39;;;;;;;2.60;1.20;;;;;;;;;;4438141;28;20394;-68
2022/05/19 07:53:50;;;;;;;2.28;1.23;;;;;;;;;;4439547;28;20866;-68
2022/05/19 07:56:01;;;;;;;1.67;1.42;;;;;;;;;;4437885;28;20032;-68
2022/05/19 07:58:12;;;;;;;2.10;1.00;;;;;;;;;;4421184;28;20073;-69
2022/05/19 08:00:23;;;;;;;1.57;1.30;;;;;;;;;;4420918;28;20032;-68
2022/05/19 08:02:33;;;;;;;1.20;1.10;;;;;;;;;;4429211;28;20493;-68
2022/05/19 08:04:43;;;;;;;1.60;1.20;;;;;;;;;;4438198;28;20134;-68
2022/05/19 08:06:54;;;;;;;2.20;1.10;;;;;;;;;;4438531;28;20134;-68
2022/05/19 08:10:20;;;;;;;1.77;1.00;;;;;;;;;;4438314;28;20091;-68
2022/05/19 08:11:36;;;;;;;2.05;1.25;;;;;;;;;;4437989;28;20055;-68
2022/05/19 08:16:16;;;;;;;1.30;1.20;;;;;;;;;;4435973;28;20826;-68
2022/05/19 08:18:26;;;;;;;2.77;1.50;;;;;;;;;;4428599;28;20742;-70
2022/05/19 08:20:39;;;;;;;2.07;1.40;;;;;;;;;;4418467;28;20044;-70
2022/05/19 08:22:50;;;;;;;2.35;1.60;;;;;;;;;;4420248;28;20643;-70
2022/05/19 08:25:00;;;;;;;1.87;1.43;;;;;;;;;;4436458;28;31195;-69
2022/05/19 08:27:11;;;;;;;0.93;0.93;;;;;;;;;;4435874;28;20028;-70
2022/05/19 08:29:21;;;;;;;2.37;1.27;;;;;;;;;;4437158;28;20035;-70
2022/05/19 08:31:32;;;;;;;1.03;0.90;;;;;;;;;;4434395;28;20554;-70
2022/05/19 08:33:44;;;;;;;1.40;1.10;;;;;;;;;;4436393;28;20044;-69
2022/05/19 08:35:54;;;;;;;1.63;1.05;;;;;;;;;;4436396;28;20263;-70
2022/05/19 08:38:05;;;;;;;1.40;1.00;;;;;;;;;;4419570;28;20047;-69
2022/05/19 08:40:17;;;;;;;1.67;1.27;;;;;;;;;;4438808;28;30494;-69
2022/05/19 08:42:29;;;;;;;2.05;1.10;;;;;;;;;;4425589;28;20560;-70
2022/05/19 08:44:52;;;;;;;1.35;1.20;;;;;;;;;;4431638;28;20042;-69
2022/05/19 08:47:04;;;;;;;1.58;1.23;;;;;;;;;;4422103;28;20127;-69
2022/05/19 08:49:33;;;;;;;2.28;1.20;;;;;;;;;;4415629;28;20654;-69
2022/05/19 08:52:07;;;;;;;1.65;1.13;;;;;;;;;;4440058;28;20075;-69
2022/05/19 08:54:23;;;;;;;1.98;1.10;;;;;;;;;;4440604;28;20094;-69
2022/05/19 08:56:40;;;;;;;1.50;1.08;;;;;;;;;;4440432;28;20603;-70
2022/05/19 08:59:06;;;;;;;1.00;1.00;;;;;;;;;;4426366;28;20048;-70
2022/05/19 09:01:29;;;;;;;1.50;1.20;;;;;;;;;;4438545;28;20039;-70
2022/05/19 09:04:00;;;;;;;2.35;1.13;;;;;;;;;;4421724;28;20036;-70
2022/05/19 09:06:22;;;;;;;1.10;1.00;;;;;;;;;;4429496;28;20561;-69
2022/05/19 09:08:47;;;;;;;3.33;1.30;;;;;;;;;;4422468;28;20131;-69
2022/05/19 09:11:08;;;;;;;1.40;1.08;;;;;;;;;;4439346;28;20071;-70
2022/05/19 09:13:25;;;;;;;1.85;1.20;;;;;;;;;;4439041;28;20562;-70
2022/05/19 09:15:37;;;;;;;1.75;1.20;;;;;;;;;;4438952;28;20622;-70
2022/05/19 09:17:48;;;;;;;1.20;1.10;;;;;;;;;;4439215;28;20035;-70
2022/05/19 09:20:07;;;;;;;1.20;1.00;;;;;;;;;;4422112;28;20078;-70
2022/05/19 09:22:20;;;;;;;1.30;1.20;;;;;;;;;;4430489;28;20826;-70
2022/05/19 09:24:31;;;;;;;1.55;1.10;;;;;;;;;;4440318;28;20031;-70
2022/05/19 09:26:52;;;;;;;0.97;0.90;;;;;;;;;;4439676;28;20039;-70
2022/05/19 09:29:07;;;;;;;1.23;1.13;;;;;;;;;;4439810;28;20062;-69
2022/05/19 09:31:32;;;;;;;1.23;1.13;;;;;;;;;;4409482;28;20048;-70
2022/05/19 09:33:47;;;;;;;1.40;1.02;;;;;;;;;;4437150;28;20039;-70
2022/05/19 09:36:01;;;;;;;1.45;1.20;;;;;;;;;;4439582;28;20055;-70
2022/05/19 09:38:24;;;;;;;1.50;1.10;;;;;;;;;;4422240;28;20040;-70
2022/05/19 09:40:37;;;;;;;1.85;1.00;;;;;;;;;;4420774;28;20028;-70
2022/05/19 09:42:53;;;;;;;0.95;0.95;;;;;;;;;;4424675;28;20127;-70
2022/05/19 09:45:03;;;;;;;1.67;0.90;;;;;;;;;;4424631;28;20042;-70
2022/05/19 09:47:18;;;;;;;1.30;1.00;;;;;;;;;;4406202;28;20085;-70
2022/05/19 09:49:28;;;;;;;1.92;1.10;;;;;;;;;;4422587;28;20079;-70
2022/05/19 09:51:44;;;;;;;1.40;1.10;;;;;;;;;;4438190;28;20159;-69
2022/05/19 09:53:56;;;;;;;1.40;1.17;;;;;;;;;;4424083;28;20084;-70
2022/05/19 09:56:13;;;;;;;1.40;1.10;;;;;;;;;;4438778;28;20074;-70
2022/05/19 09:58:26;;;;;;;1.20;1.10;;;;;;;;;;4421933;28;20518;-70
2022/05/19 10:00:49;;;;;;;1.27;1.17;;;;;;;;;;4436707;28;20044;-70
2022/05/19 10:03:02;;;;;;;1.25;1.00;;;;;;;;;;4438727;28;20582;-70
2022/05/19 10:05:23;;;;;;;1.20;1.10;;;;;;;;;;4423520;28;20140;-70
2022/05/19 10:07:39;;;;;;;1.03;0.93;;;;;;;;;;4436613;28;20454;-70
2022/05/19 10:09:51;;;;;;;1.88;1.00;;;;;;;;;;4438002;28;20614;-70
2022/05/19 10:12:11;;;;;;;1.10;1.00;;;;;;;;;;4437153;28;20039;-70
2022/05/19 10:14:28;;;;;;;1.63;1.00;;;;;;;;;;4438532;28;20597;-70
2022/05/19 10:16:53;;;;;;;1.00;0.90;;;;;;;;;;4438447;28;20043;-70
2022/05/19 10:19:41;;;;;;;0.80;0.80;;;;;;;;;;4421424;28;20062;-70
2022/05/19 10:22:27;;;;;;;1.33;1.00;;;;;;;;;;4438276;28;20036;-70
2022/05/19 10:25:00;;;;;;;0.98;0.85;;;;;;;;;;4415478;28;20043;-70
2022/05/19 10:33:01;;;;;;;1.00;0.90;;;;;;;;;;4423546;28;20162;-70
2022/05/19 10:35:17;;;;;;;1.87;1.30;;;;;;;;;;4408001;28;20089;-70
2022/05/19 10:37:35;;;;;;;1.90;1.25;;;;;;;;;;4425045;28;20127;-70
2022/05/19 10:40:00;;;;;;;0.88;0.88;;;;;;;;;;4438266;28;20129;-70
2022/05/19 10:42:17;;;;;;;1.15;1.05;;;;;;;;;;4430139;28;20043;-70
2022/05/19 10:44:50;;;;;;;1.20;0.98;;;;;;;;;;4438195;28;20743;-70
2022/05/19 10:47:12;;;;;;;1.73;1.05;;;;;;;;;;4438291;28;20594;-70
2022/05/19 10:49:35;;;;;;;1.42;1.00;;;;;;;;;;4428677;28;20111;-70
2022/05/19 10:51:45;;;;;;;1.35;1.02;;;;;;;;;;4437627;28;20879;-68
2022/05/19 10:54:15;;;;;;;1.10;0.90;;;;;;;;;;4438354;28;20059;-69
2022/05/19 10:56:28;;;;;;;0.90;0.90;;;;;;;;;;4439057;28;20125;-69
2022/05/19 10:58:42;;;;;;;1.77;1.02;;;;;;;;;;4420561;28;20092;-69
2022/05/19 11:01:11;;;;;;;1.10;0.90;;;;;;;;;;4436830;28;20079;-69
2022/05/19 11:03:37;;;;;;;1.33;1.00;;;;;;;;;;4429863;28;20040;-69
2022/05/19 11:06:18;;;;;;;1.33;0.98;;;;;;;;;;4419186;28;20043;-69
2022/05/19 11:08:49;;;;;;;0.90;0.88;;;;;;;;;;4419529;28;20044;-69
2022/05/19 11:11:37;;;;;;;0.90;0.90;;;;;;;;;;4438079;28;20103;-69
2022/05/19 11:14:12;;;;;;;1.65;0.80;;;;;;;;;;4435175;28;20043;-69
2022/05/19 11:16:43;;;;;;;1.38;0.80;;;;;;;;;;4436823;28;20035;-69
2022/05/19 11:18:57;;;;;;;1.00;0.90;;;;;;;;;;4421503;28;20131;-69
2022/05/19 11:21:23;;;;;;;1.00;0.88;;;;;;;;;;4420520;28;20040;-69
2022/05/19 11:23:46;;;;;;;1.10;0.95;;;;;;;;;;4413366;28;20025;-69
2022/05/19 11:26:24;;;;;;;1.38;0.80;;;;;;;;;;4437841;28;20164;-69
2022/05/19 11:28:42;;;;;;;1.83;0.95;;;;;;;;;;4422854;28;20517;-69
2022/05/19 11:30:58;;;;;;;1.80;0.95;;;;;;;;;;4438276;28;20074;-69
2022/05/19 11:33:14;;;;;;;1.13;0.80;;;;;;;;;;4421087;28;20036;-69
2022/05/19 11:35:26;;;;;;;1.30;0.93;;;;;;;;;;4436974;28;20118;-69
2022/05/19 11:37:57;;;;;;;1.67;1.10;;;;;;;;;;4418981;28;20103;-69
2022/05/19 11:40:15;;;;;;;1.35;1.00;;;;;;;;;;4436914;28;20592;-68
2022/05/19 11:42:26;;;;;;;0.80;0.80;;;;;;;;;;4420294;28;20115;-69
2022/05/19 11:44:38;;;;;;;1.20;0.93;;;;;;;;;;4437789;28;20039;-68
2022/05/19 11:47:01;;;;;;;0.80;0.80;;;;;;;;;;4437572;28;20162;-69
2022/05/19 11:57:30;;;;;;;2.00;1.13;;;;;;;;;;4436963;28;20844;-68
2022/05/19 11:59:47;;;;;;;1.65;1.13;;;;;;;;;;4429532;28;20036;-69
2022/05/19 12:01:58;;;;;;;1.27;1.10;;;;;;;;;;4437140;28;21082;-69
2022/05/19 12:04:13;;;;;;;2.50;1.00;;;;;;;;;;4436724;28;20046;-67
2022/05/19 12:06:29;;;;;;;1.27;0.90;;;;;;;;;;4436710;28;20043;-75
2022/05/19 12:08:56;;;;;;;1.15;0.90;;;;;;;;;;4406833;28;20040;-73
2022/05/19 12:11:14;;;;;;;3.33;1.10;;;;;;;;;;4438017;28;20119;-75
2022/05/19 12:13:34;;;;;;;1.00;0.90;;;;;;;;;;4425468;28;20074;-75
2022/05/19 12:15:57;;;;;;;0.90;0.90;;;;;;;;;;4439626;28;20151;-75
2022/05/19 12:18:28;;;;;;;1.98;1.10;;;;;;;;;;4426458;28;20680;-74
2022/05/19 12:20:38;;;;;;;0.80;0.80;;;;;;;;;;4440606;28;20063;-75
2022/05/19 12:23:14;;;;;;;0.80;0.80;;;;;;;;;;4440259;28;20035;-75
2022/05/19 12:25:26;;;;;;;1.10;0.80;;;;;;;;;;4440584;28;20031;-74
2022/05/19 12:27:37;;;;;;;1.02;0.98;;;;;;;;;;4423039;28;20044;-73
2022/05/19 12:31:56;;;;;;;1.17;0.90;;;;;;;;;;4440888;28;20044;-74
2022/05/19 12:32:35;;;;;;;1.80;0.90;;;;;;;;;;4439027;28;20130;-75
2022/05/19 12:34:52;;;;;;;0.93;0.93;;;;;;;;;;4421033;28;20108;-75
2022/05/19 12:37:45;;;;;;;1.40;1.00;;;;;;;;;;4421840;28;20071;-75
2022/05/19 12:40:11;;;;;;;1.73;0.80;;;;;;;;;;4436775;28;20508;-75
2022/05/19 12:42:34;;;;;;;1.48;0.90;;;;;;;;;;4426112;28;20036;-75
2022/05/19 12:44:50;;;;;;;1.00;0.80;;;;;;;;;;4426532;28;20108;-74
2022/05/19 12:47:11;;;;;;;0.90;0.80;;;;;;;;;;4422237;28;20115;-75
2022/05/19 12:49:24;;;;;;;1.13;0.90;;;;;;;;;;4438699;28;20040;-75
2022/05/19 12:51:52;;;;;;;0.77;0.77;;;;;;;;;;4425641;28;20044;-75
2022/05/19 12:54:06;;;;;;;1.73;1.08;;;;;;;;;;4437809;28;20105;-75
2022/05/19 12:56:38;;;;;;;0.80;0.80;;;;;;;;;;4423448;28;20084;-76
2022/05/19 12:58:59;;;;;;;1.10;0.95;;;;;;;;;;4440241;28;21002;-74
2022/05/19 13:01:36;;;;;;;1.13;0.80;;;;;;;;;;4439698;28;20035;-73
2022/05/19 13:04:07;;;;;;;0.75;0.65;;;;;;;;;;4422011;28;20138;-75
2022/05/19 13:06:22;;;;;;;1.23;0.82;;;;;;;;;;4439458;28;20036;-74
2022/05/19 13:08:35;;;;;;;0.80;0.80;;;;;;;;;;4423359;28;20040;-75
2022/05/19 13:10:50;;;;;;;0.88;0.80;;;;;;;;;;4440179;28;20083;-75
2022/05/19 13:13:18;;;;;;;1.23;0.80;;;;;;;;;;4440100;28;20127;-75
2022/05/19 13:15:32;;;;;;;0.70;0.70;;;;;;;;;;4423113;28;20043;-75
2022/05/19 13:17:44;;;;;;;1.48;0.90;;;;;;;;;;4421327;28;20212;-75
2022/05/19 13:19:54;;;;;;;0.70;0.70;;;;;;;;;;4438871;28;20159;-75
2022/05/19 13:22:07;;;;;;;1.30;0.80;;;;;;;;;;4424685;28;20044;-74
2022/05/19 13:24:18;;;;;;;0.80;0.70;;;;;;;;;;4420846;28;20040;-75
2022/05/19 13:26:31;;;;;;;0.88;0.82;;;;;;;;;;4431341;28;20036;-75
2022/05/19 13:31:28;;;;;;;0.63;0.60;;;;;;;;;;4439450;28;20036;-75
2022/05/19 13:33:40;;;;;;;1.75;0.80;;;;;;;;;;4421209;28;20823;-75
2022/05/19 13:36:01;;;;;;;0.90;0.90;;;;;;;;;;4439189;28;20028;-75
2022/05/19 13:38:20;;;;;;;1.13;0.90;;;;;;;;;;4420611;28;20583;-74
2022/05/19 13:40:36;;;;;;;0.80;0.80;;;;;;;;;;4436678;28;20072;-75
2022/05/19 13:42:56;;;;;;;1.00;0.85;;;;;;;;;;4438083;28;20035;-74
2022/05/19 13:45:07;;;;;;;1.75;0.70;;;;;;;;;;4425350;28;20669;-74
2022/05/19 13:47:21;;;;;;;0.80;0.80;;;;;;;;;;4438275;28;20083;-74
2022/05/19 13:49:31;;;;;;;0.80;0.80;;;;;;;;;;4428613;28;20083;-75
2022/05/19 13:51:44;;;;;;;0.97;0.67;;;;;;;;;;4439284;28;20698;-74
2022/05/19 13:54:06;;;;;;;0.77;0.77;;;;;;;;;;4422212;28;20411;-75